Time;durP1;ratioP1;P1;durP2;ratioP2;P2;SDS_P1;SDS_P2;PMS_P1;PMS_P2;Temp;Humidity;BMP_temperature;BMP_pressure;BME280_temperature;BME280_humidity;BME280_pressure;Samples;Min_cycle;Max_cycle;Signal;HPM_P1;HPM_P2
2021/12/06 00:01:54;;;;;;;6.93;4.70;;;;;;;;;;5052664;28;20822;-48
2021/12/06 00:04:38;;;;;;;5.80;4.13;;;;;;;;;;5016926;28;21150;-50
2021/12/06 00:07:15;;;;;;;7.33;3.80;;;;;;;;;;5051811;28;20425;-47
2021/12/06 00:09:41;;;;;;;4.60;4.17;;;;;;;;;;5035889;28;20671;-49
2021/12/06 00:12:08;;;;;;;5.40;4.53;;;;;;;;;;5064952;28;20532;-49
2021/12/06 00:14:36;;;;;;;7.23;4.50;;;;;;;;;;5034285;28;21062;-47
2021/12/06 00:17:03;;;;;;;5.33;4.43;;;;;;;;;;5053666;28;20442;-50
2021/12/06 00:19:29;;;;;;;4.47;4.03;;;;;;;;;;5029445;28;20437;-48
2021/12/06 00:21:55;;;;;;;5.10;4.10;;;;;;;;;;5053260;28;20485;-46
2021/12/06 00:24:23;;;;;;;5.50;4.67;;;;;;;;;;5030149;28;20441;-50
2021/12/06 00:26:51;;;;;;;4.77;4.07;;;;;;;;;;5053528;28;20533;-49
2021/12/06 00:29:18;;;;;;;6.10;4.93;;;;;;;;;;5026448;28;20450;-48
2021/12/06 00:31:46;;;;;;;7.20;5.20;;;;;;;;;;5054941;28;20426;-49
2021/12/06 00:34:16;;;;;;;8.27;5.50;;;;;;;;;;5050886;28;20954;-50
2021/12/06 00:36:52;;;;;;;9.03;5.53;;;;;;;;;;5069872;28;20453;-49
2021/12/06 00:39:19;;;;;;;7.73;4.10;;;;;;;;;;5010599;28;20444;-48
2021/12/06 00:41:44;;;;;;;9.03;4.87;;;;;;;;;;5051791;28;20496;-47
2021/12/06 00:44:10;;;;;;;7.67;4.80;;;;;;;;;;5029336;28;20442;-49
2021/12/06 00:46:37;;;;;;;5.97;4.30;;;;;;;;;;5054982;28;20441;-47
2021/12/06 00:49:04;;;;;;;5.00;4.43;;;;;;;;;;5030363;28;21684;-49
2021/12/06 00:51:30;;;;;;;5.80;4.27;;;;;;;;;;5054015;28;20433;-49
2021/12/06 00:53:56;;;;;;;4.97;4.57;;;;;;;;;;5029839;28;20446;-49
2021/12/06 00:56:22;;;;;;;4.93;3.97;;;;;;;;;;5052348;28;20533;-49
2021/12/06 00:58:57;;;;;;;4.97;4.53;;;;;;;;;;5047126;28;20602;-57
2021/12/06 01:01:30;;;;;;;7.07;5.23;;;;;;;;;;5054835;28;20520;-50
2021/12/06 01:03:58;;;;;;;6.33;4.57;;;;;;;;;;5030674;28;20619;-48
2021/12/06 01:06:24;;;;;;;7.77;4.73;;;;;;;;;;5060717;28;21454;-47
2021/12/06 01:08:55;;;;;;;4.17;3.77;;;;;;;;;;5055685;28;22456;-49
2021/12/06 01:11:21;;;;;;;8.00;5.97;;;;;;;;;;5057005;28;20845;-48
2021/12/06 01:13:48;;;;;;;9.90;5.20;;;;;;;;;;5039821;28;20547;-49
2021/12/06 01:16:14;;;;;;;6.70;5.20;;;;;;;;;;5071512;28;20460;-47
2021/12/06 01:18:52;;;;;;;7.40;4.50;;;;;;;;;;5048848;28;20445;-48
2021/12/06 01:21:45;;;;;;;7.90;5.13;;;;;;;;;;5069235;28;20480;-47
2021/12/06 01:24:12;;;;;;;6.50;4.30;;;;;;;;;;5051005;28;20437;-47
2021/12/06 01:27:02;;;;;;;7.50;4.27;;;;;;;;;;5039154;28;20429;-47
2021/12/06 01:32:04;;;;;;;6.10;4.37;;;;;;;;;;5038666;28;20429;-48
2021/12/06 01:40:19;;;;;;;5.03;4.53;;;;;;;;;;5023764;28;20432;-48
2021/12/06 01:42:45;;;;;;;7.50;4.93;;;;;;;;;;5038139;28;20560;-47
2021/12/06 01:45:19;;;;;;;5.47;4.80;;;;;;;;;;5059721;28;20532;-49
2021/12/06 01:47:48;;;;;;;7.47;4.57;;;;;;;;;;5079764;28;20456;-47
2021/12/06 01:50:15;;;;;;;6.90;5.10;;;;;;;;;;5047517;28;20445;-47
2021/12/06 01:52:43;;;;;;;4.80;4.20;;;;;;;;;;5058663;28;20967;-49
2021/12/06 01:55:09;;;;;;;5.70;5.17;;;;;;;;;;5049958;28;20451;-47
2021/12/06 01:57:35;;;;;;;11.43;5.80;;;;;;;;;;5046187;28;20445;-47
2021/12/06 02:00:03;;;;;;;13.93;5.90;;;;;;;;;;5055766;28;20446;-47
2021/12/06 02:02:29;;;;;;;7.20;5.67;;;;;;;;;;5032507;28;20632;-47
2021/12/06 02:04:55;;;;;;;8.63;5.90;;;;;;;;;;5057250;28;20434;-47
2021/12/06 02:07:22;;;;;;;9.57;6.27;;;;;;;;;;5037784;28;20441;-48
2021/12/06 02:09:48;;;;;;;8.33;5.40;;;;;;;;;;5069738;28;20491;-48
2021/12/06 02:12:14;;;;;;;6.10;4.73;;;;;;;;;;5055587;28;20524;-47
2021/12/06 02:17:22;;;;;;;6.07;5.47;;;;;;;;;;5052609;28;20514;-46
2021/12/06 02:19:50;;;;;;;5.63;4.60;;;;;;;;;;5015676;28;20438;-47
2021/12/06 02:22:20;;;;;;;6.00;5.20;;;;;;;;;;5057787;28;20485;-47
2021/12/06 02:24:46;;;;;;;7.30;5.80;;;;;;;;;;5047062;28;20449;-47
2021/12/06 02:27:13;;;;;;;10.07;5.50;;;;;;;;;;5059378;28;20466;-49
2021/12/06 02:29:39;;;;;;;8.17;6.87;;;;;;;;;;5064780;28;20433;-49
2021/12/06 02:32:09;;;;;;;6.10;4.73;;;;;;;;;;5057032;28;20915;-48
2021/12/06 02:34:39;;;;;;;6.30;5.70;;;;;;;;;;5049081;28;20441;-49
2021/12/06 02:37:05;;;;;;;9.70;6.00;;;;;;;;;;5063128;28;20452;-48
2021/12/06 02:39:31;;;;;;;7.20;6.50;;;;;;;;;;5056291;28;20782;-49
2021/12/06 02:41:59;;;;;;;6.40;5.80;;;;;;;;;;5065421;28;20473;-46
2021/12/06 02:44:25;;;;;;;9.47;6.20;;;;;;;;;;5059605;28;21191;-47
2021/12/06 02:46:51;;;;;;;6.77;6.07;;;;;;;;;;5062422;28;20506;-47
2021/12/06 02:49:28;;;;;;;9.97;6.27;;;;;;;;;;5053635;28;20839;-49
2021/12/06 02:51:54;;;;;;;8.30;5.67;;;;;;;;;;5065036;28;20498;-47
2021/12/06 02:54:24;;;;;;;8.20;6.03;;;;;;;;;;5055047;28;20438;-49
2021/12/06 02:59:46;;;;;;;6.20;5.13;;;;;;;;;;5058978;28;20802;-49
2021/12/06 03:02:15;;;;;;;6.70;6.03;;;;;;;;;;5061954;28;20480;-48
2021/12/06 03:04:41;;;;;;;8.30;5.27;;;;;;;;;;5049107;28;20425;-48
2021/12/06 03:07:08;;;;;;;9.20;5.10;;;;;;;;;;5060938;28;20445;-48
2021/12/06 03:09:35;;;;;;;8.57;5.50;;;;;;;;;;5051897;28;20476;-48
2021/12/06 03:12:03;;;;;;;9.33;6.87;;;;;;;;;;5061974;28;20545;-47
2021/12/06 03:14:38;;;;;;;6.97;6.27;;;;;;;;;;5047268;28;20449;-49
2021/12/06 03:17:05;;;;;;;6.33;5.73;;;;;;;;;;5061520;28;20441;-47
2021/12/06 03:19:35;;;;;;;7.23;5.50;;;;;;;;;;5047444;28;20928;-50
2021/12/06 03:22:02;;;;;;;6.37;5.30;;;;;;;;;;5059208;28;20477;-48
2021/12/06 03:24:28;;;;;;;10.73;6.20;;;;;;;;;;5035680;28;20460;-48
2021/12/06 03:26:54;;;;;;;9.47;8.50;;;;;;;;;;5059576;28;20434;-49
2021/12/06 03:29:20;;;;;;;14.80;8.17;;;;;;;;;;5042313;28;20441;-47
2021/12/06 03:32:09;;;;;;;8.47;6.33;;;;;;;;;;5061376;28;20429;-49
2021/12/06 03:34:39;;;;;;;8.77;7.90;;;;;;;;;;5041465;28;20547;-49
2021/12/06 03:37:05;;;;;;;12.93;7.77;;;;;;;;;;5064197;28;20582;-48
2021/12/06 03:39:33;;;;;;;13.53;8.63;;;;;;;;;;5055943;28;20429;-47
2021/12/06 03:42:00;;;;;;;10.03;8.90;;;;;;;;;;5062065;28;20484;-49
2021/12/06 03:44:26;;;;;;;9.17;7.80;;;;;;;;;;5052745;28;20460;-48
2021/12/06 03:46:53;;;;;;;9.40;8.07;;;;;;;;;;5061027;28;20532;-48
2021/12/06 03:49:19;;;;;;;11.60;8.97;;;;;;;;;;5040538;28;20426;-47
2021/12/06 03:51:46;;;;;;;14.00;8.90;;;;;;;;;;5058854;28;20528;-49
2021/12/06 03:54:14;;;;;;;12.80;7.90;;;;;;;;;;5045857;28;20421;-51
2021/12/06 03:56:41;;;;;;;13.93;9.30;;;;;;;;;;5068391;28;20436;-47
2021/12/06 03:59:09;;;;;;;10.47;7.53;;;;;;;;;;5055108;28;20788;-50
2021/12/06 04:01:35;;;;;;;9.97;8.97;;;;;;;;;;5076806;28;20822;-50
2021/12/06 04:04:15;;;;;;;11.40;8.60;;;;;;;;;;5066392;28;20462;-50
2021/12/06 04:06:42;;;;;;;11.73;9.57;;;;;;;;;;5063085;28;20434;-48
2021/12/06 04:09:08;;;;;;;9.37;7.73;;;;;;;;;;5057558;28;20437;-48
2021/12/06 04:11:34;;;;;;;10.83;7.93;;;;;;;;;;5059287;28;20501;-48
2021/12/06 04:14:10;;;;;;;12.13;8.90;;;;;;;;;;5042489;28;20437;-50
2021/12/06 04:16:39;;;;;;;11.70;8.90;;;;;;;;;;5062313;28;20441;-47
2021/12/06 04:19:11;;;;;;;12.30;9.30;;;;;;;;;;5054634;28;20771;-50
2021/12/06 04:21:37;;;;;;;17.30;9.90;;;;;;;;;;5062086;28;20495;-48
2021/12/06 04:24:03;;;;;;;13.93;10.07;;;;;;;;;;5031623;28;20446;-48
2021/12/06 04:26:32;;;;;;;13.63;9.80;;;;;;;;;;5063100;28;20970;-50
2021/12/06 04:29:01;;;;;;;12.37;11.10;;;;;;;;;;5040048;28;20507;-49
2021/12/06 04:31:33;;;;;;;13.60;10.60;;;;;;;;;;5060167;28;20809;-47
2021/12/06 04:33:59;;;;;;;10.50;9.40;;;;;;;;;;5042998;28;20511;-49
2021/12/06 04:36:25;;;;;;;13.00;10.47;;;;;;;;;;5062151;28;20437;-48
2021/12/06 04:39:00;;;;;;;13.70;11.10;;;;;;;;;;5048791;28;20521;-48
2021/12/06 04:41:29;;;;;;;13.77;10.40;;;;;;;;;;5058336;28;20512;-48
2021/12/06 04:44:01;;;;;;;14.47;11.70;;;;;;;;;;5049542;28;20525;-49
2021/12/06 04:46:30;;;;;;;15.40;11.13;;;;;;;;;;5056839;28;20573;-49
2021/12/06 04:48:57;;;;;;;14.87;11.40;;;;;;;;;;5052297;28;20438;-48
2021/12/06 04:51:33;;;;;;;13.43;10.80;;;;;;;;;;5058720;28;21300;-49
2021/12/06 04:54:17;;;;;;;12.97;11.60;;;;;;;;;;5054143;28;20443;-50
2021/12/06 04:56:46;;;;;;;15.20;12.13;;;;;;;;;;5062086;28;20445;-49
2021/12/06 04:59:12;;;;;;;17.40;11.70;;;;;;;;;;5051228;28;20435;-49
2021/12/06 05:01:50;;;;;;;17.67;10.33;;;;;;;;;;5056127;28;20605;-49
2021/12/06 05:04:22;;;;;;;14.60;11.50;;;;;;;;;;5032202;28;20778;-49
2021/12/06 05:06:50;;;;;;;12.80;10.97;;;;;;;;;;5040675;28;20437;-48
2021/12/06 05:09:20;;;;;;;14.77;10.80;;;;;;;;;;5025014;28;20498;-48
2021/12/06 05:11:52;;;;;;;15.23;12.30;;;;;;;;;;5042371;28;20440;-49
2021/12/06 05:14:18;;;;;;;11.70;10.50;;;;;;;;;;5030024;28;20863;-49
2021/12/06 05:17:01;;;;;;;16.20;10.70;;;;;;;;;;5035555;28;20988;-49
2021/12/06 05:19:31;;;;;;;15.77;11.47;;;;;;;;;;5035556;28;20445;-48
2021/12/06 05:22:05;;;;;;;17.00;11.53;;;;;;;;;;5032416;28;20474;-50
2021/12/06 05:24:33;;;;;;;13.07;10.67;;;;;;;;;;5043465;28;20973;-48
2021/12/06 05:27:07;;;;;;;16.87;12.40;;;;;;;;;;5035303;28;20438;-49
2021/12/06 05:29:34;;;;;;;15.17;11.30;;;;;;;;;;5035531;28;20794;-47
2021/12/06 05:32:00;;;;;;;15.97;10.37;;;;;;;;;;5001672;28;20535;-51
2021/12/06 05:34:32;;;;;;;18.33;11.00;;;;;;;;;;5019664;28;21340;-49
2021/12/06 05:36:58;;;;;;;15.80;10.80;;;;;;;;;;5027368;28;20426;-48
2021/12/06 05:39:36;;;;;;;13.70;10.10;;;;;;;;;;5041276;28;20572;-50
2021/12/06 05:42:12;;;;;;;14.27;10.10;;;;;;;;;;5038841;28;20571;-49
2021/12/06 05:44:52;;;;;;;15.13;11.07;;;;;;;;;;5023751;28;20434;-49
2021/12/06 05:47:26;;;;;;;14.07;11.37;;;;;;;;;;5019071;28;20454;-49
2021/12/06 05:50:05;;;;;;;15.40;11.23;;;;;;;;;;5042097;28;20844;-49
2021/12/06 05:52:33;;;;;;;13.67;10.87;;;;;;;;;;5032331;28;20450;-49
2021/12/06 05:54:59;;;;;;;14.80;11.37;;;;;;;;;;5037774;28;20519;-47
2021/12/06 05:57:25;;;;;;;15.97;12.47;;;;;;;;;;5027476;28;20445;-48
2021/12/06 05:59:51;;;;;;;17.83;12.87;;;;;;;;;;5039122;28;20458;-49
2021/12/06 06:02:17;;;;;;;14.20;11.80;;;;;;;;;;5029381;28;20478;-47
2021/12/06 06:04:43;;;;;;;15.00;11.00;;;;;;;;;;5041766;28;20446;-47
2021/12/06 06:07:09;;;;;;;17.97;12.73;;;;;;;;;;5038283;28;20446;-48
2021/12/06 06:09:39;;;;;;;17.40;12.50;;;;;;;;;;5044151;28;20437;-50
2021/12/06 06:12:08;;;;;;;17.30;12.47;;;;;;;;;;5024213;28;20475;-48
2021/12/06 06:14:34;;;;;;;14.40;11.27;;;;;;;;;;5044635;28;20492;-47
2021/12/06 06:17:08;;;;;;;16.13;12.10;;;;;;;;;;5020179;28;20454;-49
2021/12/06 06:19:36;;;;;;;17.37;10.60;;;;;;;;;;5041185;28;20468;-49
2021/12/06 06:22:02;;;;;;;18.03;12.20;;;;;;;;;;5032585;28;20474;-47
2021/12/06 06:24:28;;;;;;;20.70;13.93;;;;;;;;;;5041358;28;20908;-48
2021/12/06 06:26:54;;;;;;;18.70;12.70;;;;;;;;;;5018220;28;21040;-47
2021/12/06 06:29:20;;;;;;;20.13;13.13;;;;;;;;;;5047441;28;20438;-47
2021/12/06 06:31:46;;;;;;;18.23;13.90;;;;;;;;;;5019696;28;20588;-48
2021/12/06 06:34:12;;;;;;;19.83;13.77;;;;;;;;;;5041746;28;20484;-47
2021/12/06 06:36:47;;;;;;;22.30;14.73;;;;;;;;;;5012992;28;20520;-49
2021/12/06 06:39:14;;;;;;;19.03;11.60;;;;;;;;;;5044928;28;20430;-49
2021/12/06 06:41:40;;;;;;;22.33;13.17;;;;;;;;;;5040998;28;20498;-47
2021/12/06 06:44:06;;;;;;;21.53;13.47;;;;;;;;;;5044804;28;20430;-49
2021/12/06 06:47:01;;;;;;;21.50;13.80;;;;;;;;;;5027829;28;20455;-49
2021/12/06 06:49:30;;;;;;;18.93;12.40;;;;;;;;;;5074959;28;21380;-48
2021/12/06 06:52:11;;;;;;;20.03;13.20;;;;;;;;;;5041040;28;20928;-50
2021/12/06 06:54:37;;;;;;;26.47;13.90;;;;;;;;;;5045224;28;20438;-48
2021/12/06 06:57:03;;;;;;;17.83;12.60;;;;;;;;;;5026129;28;20466;-50
2021/12/06 06:59:29;;;;;;;19.17;13.50;;;;;;;;;;5048725;28;20450;-49
2021/12/06 07:01:55;;;;;;;21.63;14.00;;;;;;;;;;5039667;28;21124;-48
2021/12/06 07:07:23;;;;;;;15.00;12.43;;;;;;;;;;5035390;28;20518;-50
2021/12/06 07:09:59;;;;;;;20.80;13.10;;;;;;;;;;5013503;28;20679;-51
2021/12/06 07:12:25;;;;;;;22.73;14.50;;;;;;;;;;5042741;28;20991;-49
2021/12/06 07:14:51;;;;;;;26.73;14.10;;;;;;;;;;5038473;28;20945;-48
2021/12/06 07:17:17;;;;;;;23.83;15.30;;;;;;;;;;5042758;28;20476;-48
2021/12/06 07:22:48;;;;;;;22.60;13.07;;;;;;;;;;5037865;28;21216;-48
2021/12/06 07:25:15;;;;;;;18.60;13.27;;;;;;;;;;5033016;28;20447;-48
2021/12/06 07:27:41;;;;;;;23.57;13.50;;;;;;;;;;5042584;28;20440;-48
2021/12/06 07:30:10;;;;;;;23.33;13.53;;;;;;;;;;5022648;28;21020;-50
2021/12/06 07:32:39;;;;;;;20.60;12.03;;;;;;;;;;5039436;28;20443;-48
2021/12/06 07:35:05;;;;;;;22.20;13.63;;;;;;;;;;5037692;28;20441;-49
2021/12/06 07:37:32;;;;;;;20.00;13.33;;;;;;;;;;5021132;28;20473;-48
2021/12/06 07:40:19;;;;;;;23.70;14.70;;;;;;;;;;5022870;28;20489;-49
2021/12/06 07:42:46;;;;;;;20.00;12.57;;;;;;;;;;5029065;28;20531;-50
2021/12/06 07:45:12;;;;;;;23.70;14.23;;;;;;;;;;5039064;28;20442;-50
2021/12/06 07:47:38;;;;;;;25.00;15.17;;;;;;;;;;5020148;28;20461;-49
2021/12/06 07:50:09;;;;;;;26.07;13.63;;;;;;;;;;5039877;28;20434;-50
2021/12/06 07:53:13;;;;;;;23.87;13.80;;;;;;;;;;5003875;28;20948;-51
2021/12/06 07:55:41;;;;;;;20.63;13.60;;;;;;;;;;5039924;28;20442;-50
2021/12/06 07:58:17;;;;;;;18.73;11.67;;;;;;;;;;5018678;28;23496;-50
2021/12/06 08:00:46;;;;;;;22.30;12.90;;;;;;;;;;5037839;28;20418;-50
2021/12/06 08:03:13;;;;;;;25.80;13.10;;;;;;;;;;5019073;28;20520;-49
2021/12/06 08:05:39;;;;;;;21.87;12.70;;;;;;;;;;5044509;28;20944;-50
2021/12/06 08:08:08;;;;;;;18.93;12.77;;;;;;;;;;4992089;28;21650;-51
2021/12/06 08:10:35;;;;;;;22.93;13.17;;;;;;;;;;5036606;28;20799;-48
2021/12/06 08:13:13;;;;;;;18.77;12.50;;;;;;;;;;5033963;28;20520;-52
2021/12/06 08:15:40;;;;;;;18.30;10.93;;;;;;;;;;5049873;28;20508;-49
2021/12/06 08:18:06;;;;;;;20.93;12.73;;;;;;;;;;5018301;28;20438;-48
2021/12/06 08:20:32;;;;;;;16.00;10.87;;;;;;;;;;5043395;28;20815;-50
2021/12/06 08:22:58;;;;;;;18.97;10.70;;;;;;;;;;5017413;28;20748;-49
2021/12/06 08:25:26;;;;;;;17.57;12.03;;;;;;;;;;5040841;28;20469;-50
2021/12/06 08:27:52;;;;;;;17.33;10.60;;;;;;;;;;5015400;28;20434;-48
2021/12/06 08:30:22;;;;;;;15.00;10.80;;;;;;;;;;5043289;28;20700;-49
2021/12/06 08:32:49;;;;;;;18.70;10.47;;;;;;;;;;5037728;28;20434;-49
2021/12/06 08:35:15;;;;;;;17.50;11.90;;;;;;;;;;5039652;28;20533;-49
2021/12/06 08:37:41;;;;;;;18.10;10.77;;;;;;;;;;5015675;28;20533;-48
2021/12/06 08:40:08;;;;;;;15.97;10.47;;;;;;;;;;5040447;28;20442;-49
2021/12/06 08:42:34;;;;;;;19.60;11.57;;;;;;;;;;5015173;28;21604;-51
2021/12/06 08:45:00;;;;;;;18.37;11.03;;;;;;;;;;5042540;28;20427;-51
2021/12/06 08:47:28;;;;;;;20.50;12.10;;;;;;;;;;4999098;28;20549;-49
2021/12/06 08:49:54;;;;;;;22.50;11.50;;;;;;;;;;5038556;28;20421;-49
2021/12/06 08:52:21;;;;;;;20.83;12.63;;;;;;;;;;5039311;28;20527;-50
2021/12/06 08:54:47;;;;;;;16.60;10.07;;;;;;;;;;5033724;28;20453;-49
2021/12/06 08:57:41;;;;;;;15.33;10.03;;;;;;;;;;5040235;28;20435;-51
2021/12/06 09:00:11;;;;;;;17.30;9.63;;;;;;;;;;5035379;28;20489;-49
2021/12/06 09:02:38;;;;;;;12.93;8.90;;;;;;;;;;5039324;28;20497;-49
2021/12/06 09:05:05;;;;;;;15.20;9.37;;;;;;;;;;5037809;28;20423;-50
2021/12/06 09:07:31;;;;;;;13.07;8.67;;;;;;;;;;5017006;28;20486;-50
2021/12/06 09:09:57;;;;;;;13.30;8.60;;;;;;;;;;5056604;28;20426;-48
2021/12/06 09:12:24;;;;;;;14.87;10.70;;;;;;;;;;5026167;28;20515;-48
2021/12/06 09:14:50;;;;;;;12.97;9.77;;;;;;;;;;5041006;28;20427;-47
2021/12/06 09:17:17;;;;;;;12.40;9.00;;;;;;;;;;5026491;28;20438;-50
2021/12/06 09:19:43;;;;;;;13.60;8.97;;;;;;;;;;5039379;28;20431;-48
2021/12/06 09:22:09;;;;;;;14.00;8.90;;;;;;;;;;5003650;28;20482;-49
2021/12/06 09:24:35;;;;;;;13.77;9.07;;;;;;;;;;5042458;28;20450;-50
2021/12/06 09:27:01;;;;;;;11.63;8.80;;;;;;;;;;5043097;28;20560;-50
2021/12/06 09:29:29;;;;;;;12.93;9.17;;;;;;;;;;5043885;28;20564;-49
2021/12/06 09:31:59;;;;;;;15.60;8.13;;;;;;;;;;5018551;28;20449;-49
2021/12/06 09:34:26;;;;;;;15.13;7.33;;;;;;;;;;5042300;28;20477;-50
2021/12/06 09:36:52;;;;;;;9.93;8.43;;;;;;;;;;5040990;28;20627;-49
2021/12/06 09:39:18;;;;;;;12.53;8.50;;;;;;;;;;5039393;28;20430;-49
2021/12/06 09:41:45;;;;;;;14.23;8.17;;;;;;;;;;5023527;28;21140;-51
2021/12/06 09:44:11;;;;;;;13.73;9.27;;;;;;;;;;5038121;28;20436;-50
2021/12/06 09:46:38;;;;;;;13.60;8.03;;;;;;;;;;5042046;28;20445;-50
2021/12/06 09:49:09;;;;;;;17.63;9.83;;;;;;;;;;5030623;28;21049;-48
2021/12/06 09:51:36;;;;;;;14.60;8.47;;;;;;;;;;5042402;28;20958;-49
2021/12/06 09:54:02;;;;;;;13.80;8.60;;;;;;;;;;5004912;28;20492;-49
2021/12/06 09:56:32;;;;;;;16.83;9.60;;;;;;;;;;5037842;28;20817;-49
2021/12/06 09:58:58;;;;;;;13.23;8.20;;;;;;;;;;5032376;28;20855;-48
2021/12/06 10:01:28;;;;;;;17.37;9.13;;;;;;;;;;5041099;28;20474;-51
2021/12/06 10:03:55;;;;;;;14.53;10.00;;;;;;;;;;5015028;28;20534;-49
2021/12/06 10:06:21;;;;;;;16.30;8.90;;;;;;;;;;5045914;28;20426;-48
2021/12/06 10:09:10;;;;;;;16.10;8.33;;;;;;;;;;5031208;28;20446;-50
2021/12/06 10:11:36;;;;;;;17.80;8.67;;;;;;;;;;5041126;28;20537;-49
2021/12/06 10:14:02;;;;;;;20.50;9.40;;;;;;;;;;5021985;28;20954;-49
2021/12/06 10:16:29;;;;;;;12.90;8.47;;;;;;;;;;5045229;28;20450;-49
2021/12/06 10:18:56;;;;;;;16.00;10.23;;;;;;;;;;4996830;28;20557;-49
2021/12/06 10:21:24;;;;;;;14.87;8.90;;;;;;;;;;5041332;28;20576;-49
2021/12/06 10:23:57;;;;;;;17.03;8.57;;;;;;;;;;5041204;28;20698;-50
2021/12/06 10:26:25;;;;;;;14.77;8.47;;;;;;;;;;5043228;28;20907;-50
2021/12/06 10:29:05;;;;;;;14.57;8.57;;;;;;;;;;5006353;28;20488;-49
2021/12/06 10:31:33;;;;;;;10.37;7.83;;;;;;;;;;5041606;28;21154;-50
2021/12/06 10:33:59;;;;;;;12.73;8.53;;;;;;;;;;5041707;28;20443;-49
2021/12/06 10:36:26;;;;;;;14.87;9.10;;;;;;;;;;5018957;28;20446;-49
2021/12/06 10:38:53;;;;;;;9.10;7.90;;;;;;;;;;5044389;28;20431;-49
2021/12/06 10:41:25;;;;;;;10.53;6.70;;;;;;;;;;5021969;28;20555;-50
2021/12/06 10:43:51;;;;;;;12.90;7.90;;;;;;;;;;5044585;28;20493;-50
2021/12/06 10:46:17;;;;;;;11.90;6.83;;;;;;;;;;5022046;28;20521;-49
2021/12/06 10:48:43;;;;;;;9.90;5.60;;;;;;;;;;5042847;28;20450;-51
2021/12/06 10:51:15;;;;;;;8.70;5.80;;;;;;;;;;5006699;28;21013;-51
2021/12/06 10:53:48;;;;;;;5.93;4.70;;;;;;;;;;5041482;28;20791;-50
2021/12/06 10:56:19;;;;;;;7.13;5.80;;;;;;;;;;5033848;28;20441;-49
2021/12/06 10:58:45;;;;;;;8.97;4.33;;;;;;;;;;5045576;28;20434;-49
2021/12/06 11:01:32;;;;;;;9.30;5.53;;;;;;;;;;5005250;28;20464;-49
2021/12/06 11:03:58;;;;;;;6.83;4.40;;;;;;;;;;5043280;28;20434;-49
2021/12/06 11:06:27;;;;;;;6.00;4.23;;;;;;;;;;5018874;28;20507;-50
2021/12/06 11:09:00;;;;;;;4.63;3.77;;;;;;;;;;5046564;28;20446;-50
2021/12/06 11:11:28;;;;;;;7.67;4.27;;;;;;;;;;4991665;28;20495;-49
2021/12/06 11:13:55;;;;;;;4.77;3.73;;;;;;;;;;5013609;28;20446;-57
2021/12/06 11:16:27;;;;;;;6.60;4.27;;;;;;;;;;5040442;28;20762;-49
2021/12/06 11:18:57;;;;;;;4.50;2.83;;;;;;;;;;5024905;28;20430;-50
2021/12/06 11:21:38;;;;;;;4.20;2.93;;;;;;;;;;5043908;28;21012;-50
2021/12/06 11:24:13;;;;;;;3.97;3.47;;;;;;;;;;5018193;28;20441;-51
2021/12/06 11:26:41;;;;;;;4.50;3.27;;;;;;;;;;5041161;28;20525;-50
2021/12/06 11:29:07;;;;;;;5.20;3.10;;;;;;;;;;5012970;28;20440;-51
2021/12/06 11:31:35;;;;;;;3.60;2.97;;;;;;;;;;5042270;28;20587;-51
2021/12/06 11:34:13;;;;;;;4.43;3.60;;;;;;;;;;4977467;28;20479;-50
2021/12/06 11:36:45;;;;;;;5.93;4.40;;;;;;;;;;5020488;28;20581;-50
2021/12/06 11:39:35;;;;;;;5.73;4.60;;;;;;;;;;5037488;28;20909;-50
2021/12/06 11:42:04;;;;;;;5.23;3.80;;;;;;;;;;5014644;28;20478;-50
2021/12/06 11:44:33;;;;;;;4.63;3.67;;;;;;;;;;5044259;28;20460;-49
2021/12/06 11:47:19;;;;;;;5.33;2.90;;;;;;;;;;5027994;28;20466;-49
2021/12/06 11:49:51;;;;;;;4.07;3.30;;;;;;;;;;5041923;28;20537;-49
2021/12/06 11:52:19;;;;;;;3.10;2.80;;;;;;;;;;5025984;28;20685;-51
2021/12/06 11:55:10;;;;;;;2.13;1.40;;;;;;;;;;5036089;28;20668;-49
2021/12/06 11:57:40;;;;;;;2.40;1.43;;;;;;;;;;5030582;28;20458;-49
2021/12/06 12:00:20;;;;;;;2.10;1.63;;;;;;;;;;5023103;28;21240;-51
2021/12/06 12:02:55;;;;;;;2.03;1.83;;;;;;;;;;5041798;28;20488;-51
2021/12/06 12:05:37;;;;;;;1.90;1.30;;;;;;;;;;5019486;28;20540;-50
2021/12/06 12:08:13;;;;;;;2.10;1.60;;;;;;;;;;5041378;28;20425;-49
2021/12/06 12:10:49;;;;;;;1.33;1.13;;;;;;;;;;5024094;28;20446;-49
2021/12/06 12:13:22;;;;;;;1.97;1.57;;;;;;;;;;5044966;28;20529;-49
2021/12/06 12:15:50;;;;;;;1.90;1.70;;;;;;;;;;5045122;28;20827;-49
2021/12/06 12:18:16;;;;;;;2.20;1.80;;;;;;;;;;5039011;28;22025;-50
2021/12/06 12:20:42;;;;;;;3.90;1.40;;;;;;;;;;5014297;28;20441;-49
2021/12/06 12:23:11;;;;;;;1.50;1.37;;;;;;;;;;5038323;28;20490;-52
2021/12/06 12:25:42;;;;;;;1.33;1.23;;;;;;;;;;5009287;28;20939;-48
2021/12/06 12:28:19;;;;;;;4.43;1.50;;;;;;;;;;5046168;28;21045;-50
2021/12/06 12:30:45;;;;;;;7.10;2.07;;;;;;;;;;5015882;28;20528;-51
2021/12/06 12:33:12;;;;;;;2.10;1.43;;;;;;;;;;5054711;28;20426;-51
2021/12/06 12:35:42;;;;;;;2.40;2.00;;;;;;;;;;5033415;28;20902;-50
2021/12/06 12:38:10;;;;;;;3.57;2.47;;;;;;;;;;5049766;28;20434;-50
2021/12/06 12:40:40;;;;;;;3.67;2.90;;;;;;;;;;4998961;28;21623;-49
2021/12/06 12:43:27;;;;;;;3.57;2.70;;;;;;;;;;5040674;28;20621;-51
2021/12/06 12:45:56;;;;;;;5.33;3.50;;;;;;;;;;5036967;28;20426;-51
2021/12/06 12:48:25;;;;;;;2.90;2.53;;;;;;;;;;5024019;28;20477;-51
2021/12/06 12:51:05;;;;;;;5.97;3.70;;;;;;;;;;5011329;28;20581;-49
2021/12/06 12:54:03;;;;;;;4.60;3.30;;;;;;;;;;5040731;28;20527;-50
2021/12/06 12:56:52;;;;;;;4.77;3.07;;;;;;;;;;5013869;28;20437;-50
2021/12/06 12:59:18;;;;;;;3.63;2.90;;;;;;;;;;5043035;28;20470;-50
2021/12/06 13:01:46;;;;;;;4.20;2.93;;;;;;;;;;5014162;28;20471;-49
2021/12/06 13:04:21;;;;;;;2.87;2.67;;;;;;;;;;5027216;28;20448;-51
2021/12/06 13:06:52;;;;;;;3.50;2.63;;;;;;;;;;5032893;28;20623;-50
2021/12/06 13:09:18;;;;;;;3.50;3.17;;;;;;;;;;5063396;28;20894;-51
2021/12/06 13:11:56;;;;;;;3.60;2.70;;;;;;;;;;5034539;28;20526;-50
2021/12/06 13:14:30;;;;;;;4.77;3.63;;;;;;;;;;5018749;28;20194;-49
2021/12/06 13:17:00;;;;;;;7.70;2.93;;;;;;;;;;5041254;28;20549;-49
2021/12/06 13:22:09;;;;;;;2.90;2.37;;;;;;;;;;5042995;28;20474;-49
2021/12/06 13:24:37;;;;;;;4.10;2.73;;;;;;;;;;5020044;28;20793;-51
2021/12/06 13:27:04;;;;;;;3.47;3.17;;;;;;;;;;5046311;28;20437;-50
2021/12/06 13:29:47;;;;;;;3.93;2.47;;;;;;;;;;5020453;28;20452;-49
2021/12/06 13:32:27;;;;;;;8.03;3.40;;;;;;;;;;5040612;28;21307;-51
2021/12/06 13:35:17;;;;;;;2.77;2.57;;;;;;;;;;5021052;28;20465;-50
2021/12/06 13:38:11;;;;;;;2.73;2.20;;;;;;;;;;5032405;28;20864;-50
2021/12/06 13:40:41;;;;;;;3.10;2.50;;;;;;;;;;5028524;28;21006;-51
2021/12/06 13:43:16;;;;;;;3.50;2.10;;;;;;;;;;5043112;28;20474;-50
2021/12/06 13:45:44;;;;;;;2.33;1.90;;;;;;;;;;5043887;28;20441;-49
2021/12/06 13:48:19;;;;;;;6.33;2.43;;;;;;;;;;5032064;28;21024;-50
2021/12/06 13:50:45;;;;;;;2.27;1.87;;;;;;;;;;5044584;28;20932;-50
2021/12/06 13:53:30;;;;;;;2.90;2.33;;;;;;;;;;5024889;28;20449;-51
2021/12/06 13:55:56;;;;;;;3.73;2.03;;;;;;;;;;5042966;28;20430;-50
2021/12/06 13:58:23;;;;;;;3.57;2.30;;;;;;;;;;5022821;28;20457;-49
2021/12/06 14:00:49;;;;;;;3.33;2.60;;;;;;;;;;5041405;28;20438;-49
2021/12/06 14:03:20;;;;;;;3.73;3.00;;;;;;;;;;5026801;28;20517;-50
2021/12/06 14:05:47;;;;;;;3.07;2.53;;;;;;;;;;5042089;28;20437;-49
2021/12/06 14:08:20;;;;;;;2.60;2.10;;;;;;;;;;5009373;28;20566;-50
2021/12/06 14:10:46;;;;;;;3.67;3.03;;;;;;;;;;5044560;28;20446;-49
2021/12/06 14:13:12;;;;;;;2.50;2.00;;;;;;;;;;5009477;28;20494;-48
2021/12/06 14:18:09;;;;;;;3.70;2.60;;;;;;;;;;5035254;28;20442;-50
2021/12/06 14:20:37;;;;;;;2.73;2.20;;;;;;;;;;5033536;28;20447;-51
2021/12/06 14:23:05;;;;;;;4.43;3.03;;;;;;;;;;5033749;28;20470;-50
2021/12/06 14:25:34;;;;;;;4.20;2.60;;;;;;;;;;5037791;28;20438;-51
2021/12/06 14:28:01;;;;;;;3.87;2.67;;;;;;;;;;5067073;28;20462;-50
2021/12/06 14:30:29;;;;;;;6.37;2.97;;;;;;;;;;5045653;28;20443;-51
2021/12/06 14:32:56;;;;;;;5.00;3.20;;;;;;;;;;5021046;28;20500;-50
2021/12/06 14:35:23;;;;;;;3.47;2.37;;;;;;;;;;5037154;28;20442;-50
2021/12/06 14:37:50;;;;;;;5.33;2.70;;;;;;;;;;5004530;28;20454;-49
2021/12/06 14:40:18;;;;;;;4.60;2.23;;;;;;;;;;5037210;28;20435;-50
2021/12/06 14:42:44;;;;;;;3.30;2.40;;;;;;;;;;5025455;28;22141;-50
2021/12/06 14:45:11;;;;;;;4.90;2.97;;;;;;;;;;5040012;28;20433;-51
2021/12/06 14:47:42;;;;;;;4.43;2.73;;;;;;;;;;5010001;28;20872;-50
2021/12/06 14:50:32;;;;;;;5.13;3.30;;;;;;;;;;5043099;28;20449;-50
2021/12/06 14:52:59;;;;;;;2.80;2.13;;;;;;;;;;5025858;28;20542;-49
2021/12/06 14:55:51;;;;;;;4.40;2.80;;;;;;;;;;5037566;28;20477;-49
2021/12/06 14:58:17;;;;;;;5.43;2.60;;;;;;;;;;5032679;28;20481;-51
2021/12/06 15:00:44;;;;;;;3.80;2.33;;;;;;;;;;5040235;28;20443;-50
2021/12/06 15:03:12;;;;;;;2.87;1.97;;;;;;;;;;5037424;28;20573;-50
2021/12/06 15:05:41;;;;;;;2.40;2.00;;;;;;;;;;5045288;28;20433;-50
2021/12/06 15:08:09;;;;;;;4.10;2.20;;;;;;;;;;5023049;28;20661;-50
2021/12/06 15:10:40;;;;;;;5.63;4.17;;;;;;;;;;5041618;28;20457;-50
2021/12/06 15:13:06;;;;;;;3.07;2.17;;;;;;;;;;5018635;28;20525;-50
2021/12/06 15:15:33;;;;;;;5.43;3.47;;;;;;;;;;5040462;28;20443;-50